createdAt,value
2018-08-09T00:01:36.843Z,6.40
2018-08-09T00:04:04.891Z,4.77
2018-08-09T00:06:32.913Z,7.07
2018-08-09T00:09:01.067Z,6.03
2018-08-09T00:11:29.093Z,5.53
2018-08-09T00:13:57.192Z,10.47
2018-08-09T00:16:25.494Z,7.27
2018-08-09T00:18:53.514Z,4.53
2018-08-09T00:21:21.613Z,7.10
2018-08-09T00:23:49.691Z,5.37
2018-08-09T00:26:17.782Z,3.57
2018-08-09T00:28:45.798Z,9.97
2018-08-09T00:31:13.909Z,5.17
2018-08-09T00:33:41.936Z,5.90
2018-08-09T00:36:09.982Z,7.00
2018-08-09T00:38:38.018Z,6.60
2018-08-09T00:41:06.339Z,7.23
2018-08-09T00:43:34.384Z,6.03
2018-08-09T00:46:02.434Z,7.30
2018-08-09T00:48:30.718Z,4.63
2018-08-09T00:50:58.754Z,6.53
2018-08-09T00:53:26.792Z,7.83
2018-08-09T00:55:54.834Z,8.13
2018-08-09T00:58:22.859Z,5.53
2018-08-09T01:00:50.906Z,11.00
2018-08-09T01:03:19.200Z,6.30
2018-08-09T01:05:47.221Z,6.50
2018-08-09T01:08:15.254Z,5.43
2018-08-09T01:10:43.369Z,7.30
2018-08-09T01:13:11.437Z,6.60
2018-08-09T01:15:39.510Z,6.43
2018-08-09T01:18:07.858Z,6.97
2018-08-09T01:20:35.903Z,6.40
2018-08-09T01:23:04.032Z,7.27
2018-08-09T01:25:32.114Z,7.80
2018-08-09T01:28:00.175Z,6.17
2018-08-09T01:30:28.238Z,6.33
2018-08-09T01:32:56.363Z,8.10
2018-08-09T01:35:24.290Z,7.07
2018-08-09T01:37:52.351Z,11.10
2018-08-09T01:40:20.429Z,6.20
2018-08-09T01:43:00.114Z,5.80
2018-08-09T01:45:28.154Z,7.97
2018-08-09T01:47:56.224Z,7.87
2018-08-09T01:50:24.289Z,6.67
2018-08-09T01:52:52.380Z,6.33
2018-08-09T01:55:20.679Z,7.30
2018-08-09T01:57:48.810Z,7.53
2018-08-09T02:00:16.845Z,7.37
2018-08-09T02:02:44.951Z,9.63
2018-08-09T02:05:12.994Z,6.30
2018-08-09T02:07:41.132Z,8.13
2018-08-09T02:10:09.176Z,8.23
2018-08-09T02:12:37.210Z,8.97
2018-08-09T02:15:05.238Z,9.63
2018-08-09T02:17:33.288Z,7.43
2018-08-09T02:20:01.587Z,9.40
2018-08-09T02:22:29.875Z,8.10
2018-08-09T02:24:58.204Z,7.40
2018-08-09T02:27:26.270Z,6.77
2018-08-09T02:29:54.295Z,6.77
2018-08-09T02:32:22.437Z,8.70
2018-08-09T02:34:50.519Z,9.77
2018-08-09T02:37:18.821Z,8.50
2018-08-09T02:39:47.144Z,7.43
2018-08-09T02:42:15.463Z,11.33
2018-08-09T02:44:43.779Z,7.27
2018-08-09T02:47:12.080Z,7.43
2018-08-09T02:49:40.384Z,6.57
2018-08-09T02:52:08.935Z,8.13
2018-08-09T02:54:37.224Z,9.83
2018-08-09T02:57:05.251Z,8.03
2018-08-09T02:59:33.385Z,9.27
2018-08-09T03:02:01.413Z,10.00
2018-08-09T03:04:29.495Z,8.33
2018-08-09T03:06:57.799Z,10.13
2018-08-09T03:09:26.131Z,10.30
2018-08-09T03:11:54.437Z,8.77
2018-08-09T03:14:22.730Z,9.40
2018-08-09T03:16:51.063Z,8.47
2018-08-09T03:19:19.367Z,8.93
2018-08-09T03:21:47.681Z,8.90
2018-08-09T03:24:16.090Z,13.03
2018-08-09T03:26:44.300Z,9.87
2018-08-09T03:29:12.620Z,9.87
2018-08-09T03:31:40.920Z,8.60
2018-08-09T03:34:09.213Z,9.93
2018-08-09T03:36:37.539Z,7.47
2018-08-09T03:39:07.716Z,10.57
2018-08-09T03:41:36.014Z,10.87
2018-08-09T03:44:04.303Z,9.53
2018-08-09T03:46:32.643Z,11.93
2018-08-09T03:49:00.926Z,8.60
2018-08-09T03:51:29.223Z,8.73
2018-08-09T03:53:57.680Z,9.27
2018-08-09T03:56:25.979Z,9.93
2018-08-09T03:58:54.288Z,11.03
2018-08-09T04:01:22.623Z,10.93
2018-08-09T04:03:50.987Z,10.33
2018-08-09T04:06:19.295Z,10.13
2018-08-09T04:08:47.582Z,9.63
2018-08-09T04:11:15.889Z,8.00
2018-08-09T04:13:44.191Z,9.63
2018-08-09T04:16:12.482Z,9.43
2018-08-09T04:18:40.795Z,8.13
2018-08-09T04:21:09.088Z,11.70
2018-08-09T04:23:37.476Z,8.40
2018-08-09T04:26:06.048Z,9.00
2018-08-09T04:28:34.358Z,11.23
2018-08-09T04:31:02.660Z,11.03
2018-08-09T04:33:31.014Z,12.43
2018-08-09T04:35:59.323Z,12.93
2018-08-09T04:38:27.635Z,14.50
2018-08-09T04:40:55.921Z,10.50
2018-08-09T04:43:24.227Z,12.53
2018-08-09T04:45:52.530Z,9.00
2018-08-09T04:48:20.832Z,11.93
2018-08-09T04:50:49.140Z,9.50
2018-08-09T04:53:17.461Z,9.93
2018-08-09T04:55:46.124Z,9.23
2018-08-09T04:58:14.493Z,9.33
2018-08-09T05:00:42.783Z,13.67
2018-08-09T05:03:11.092Z,16.90
2018-08-09T05:05:39.404Z,11.60
2018-08-09T05:08:07.838Z,11.47
2018-08-09T05:10:36.148Z,15.97
2018-08-09T05:13:04.452Z,12.60
2018-08-09T05:15:32.768Z,14.00
2018-08-09T05:18:01.100Z,13.80
2018-08-09T05:20:29.423Z,14.13
2018-08-09T05:22:57.850Z,14.77
2018-08-09T05:25:26.274Z,12.27
2018-08-09T05:27:54.641Z,12.57
2018-08-09T05:30:24.648Z,11.50
2018-08-09T05:32:52.951Z,10.87
2018-08-09T05:35:21.262Z,11.93
2018-08-09T05:37:49.568Z,13.20
2018-08-09T05:40:17.895Z,10.97
2018-08-09T05:42:46.463Z,12.77
2018-08-09T05:45:14.866Z,13.13
2018-08-09T05:47:43.204Z,12.43
2018-08-09T05:50:11.505Z,14.10
2018-08-09T05:52:39.870Z,11.30
2018-08-09T05:55:08.175Z,11.67
2018-08-09T05:57:36.636Z,12.10
2018-08-09T06:00:06.026Z,11.33
2018-08-09T06:02:34.327Z,12.77
2018-08-09T06:05:05.279Z,13.47
2018-08-09T06:07:33.560Z,12.73
2018-08-09T06:10:01.875Z,11.57
2018-08-09T06:12:30.808Z,13.70
2018-08-09T06:14:59.176Z,12.57
2018-08-09T06:17:27.487Z,11.27
2018-08-09T06:19:55.530Z,12.33
2018-08-09T06:22:23.849Z,11.40
2018-08-09T06:24:52.139Z,14.27
2018-08-09T06:27:20.424Z,11.87
2018-08-09T06:29:48.713Z,12.17
2018-08-09T06:32:17.058Z,13.47
2018-08-09T06:34:45.413Z,11.53
2018-08-09T06:37:14.228Z,13.63
2018-08-09T06:39:42.664Z,15.37
2018-08-09T06:42:10.976Z,12.90
2018-08-09T06:44:39.267Z,12.63
2018-08-09T06:47:07.567Z,12.67
2018-08-09T06:49:35.871Z,12.97
2018-08-09T06:52:04.170Z,16.17
2018-08-09T06:54:32.465Z,13.97
2018-08-09T06:57:00.795Z,14.60
2018-08-09T06:59:29.104Z,12.23
2018-08-09T07:01:57.396Z,19.20
2018-08-09T07:04:25.531Z,12.83
2018-08-09T07:06:53.855Z,15.20
2018-08-09T07:09:22.187Z,12.63
2018-08-09T07:11:50.489Z,13.30
2018-08-09T07:14:18.792Z,15.50
2018-08-09T07:16:47.084Z,13.40
2018-08-09T07:19:15.399Z,14.67
2018-08-09T07:21:43.695Z,13.57
2018-08-09T07:24:12.011Z,13.00
2018-08-09T07:26:40.308Z,12.77
2018-08-09T07:29:08.608Z,12.07
2018-08-09T07:31:36.914Z,13.27
2018-08-09T07:34:05.208Z,13.93
2018-08-09T07:36:33.538Z,11.90
2018-08-09T07:39:01.838Z,13.83
2018-08-09T07:41:30.156Z,13.00
2018-08-09T07:43:58.467Z,12.30
2018-08-09T07:46:26.773Z,12.13
2018-08-09T07:48:55.119Z,15.63
2018-08-09T07:51:23.413Z,12.50
2018-08-09T07:53:51.699Z,14.33
2018-08-09T07:56:19.995Z,12.23
2018-08-09T07:58:48.279Z,17.27
2018-08-09T08:01:16.590Z,14.23
2018-08-09T08:03:45.003Z,14.80
2018-08-09T08:06:13.365Z,12.80
2018-08-09T08:08:41.648Z,13.90
2018-08-09T08:11:09.987Z,12.90
2018-08-09T08:13:38.331Z,16.57
2018-08-09T08:16:06.843Z,12.50
2018-08-09T08:18:35.140Z,11.50
2018-08-09T08:21:03.467Z,12.77
2018-08-09T08:23:31.779Z,12.90
2018-08-09T08:26:00.144Z,12.47
2018-08-09T08:28:28.457Z,10.60
2018-08-09T08:30:56.809Z,11.00
2018-08-09T08:33:25.194Z,11.33
2018-08-09T08:35:53.503Z,14.20
2018-08-09T08:38:21.823Z,10.43
2018-08-09T08:40:50.147Z,9.77
2018-08-09T08:43:18.485Z,12.20
2018-08-09T08:45:46.843Z,13.63
2018-08-09T08:48:15.203Z,11.70
2018-08-09T08:50:43.523Z,10.37
2018-08-09T08:53:11.916Z,11.27
2018-08-09T08:55:40.182Z,14.97
2018-08-09T08:58:08.496Z,12.58
2018-08-09T09:00:36.875Z,9.93
2018-08-09T09:03:05.184Z,9.80
2018-08-09T09:05:33.501Z,9.88
2018-08-09T09:08:01.807Z,10.40
2018-08-09T09:10:30.165Z,12.37
2018-08-09T09:12:58.495Z,10.60
2018-08-09T09:15:26.813Z,10.48
2018-08-09T09:17:55.103Z,10.25
2018-08-09T09:20:23.427Z,9.18
2018-08-09T09:22:51.706Z,8.18
2018-08-09T09:25:20.004Z,11.48
2018-08-09T09:27:48.327Z,11.53
2018-08-09T09:30:17.920Z,10.20
2018-08-09T09:32:46.505Z,8.33
2018-08-09T09:35:14.803Z,9.53
2018-08-09T09:37:43.594Z,7.37
2018-08-09T09:40:11.903Z,10.05
2018-08-09T09:42:40.306Z,10.05
2018-08-09T09:45:09.627Z,6.97
2018-08-09T09:47:37.992Z,7.65
2018-08-09T09:50:07.614Z,8.13
2018-08-09T09:52:35.914Z,9.37
2018-08-09T09:55:04.691Z,8.08
2018-08-09T09:57:32.984Z,6.37
2018-08-09T10:00:01.288Z,7.37
2018-08-09T10:02:29.634Z,6.20
2018-08-09T10:04:57.935Z,10.63
2018-08-09T10:07:26.237Z,12.80
2018-08-09T10:09:54.521Z,8.30
2018-08-09T10:12:22.808Z,8.80
2018-08-09T10:14:51.140Z,7.57
2018-08-09T10:17:19.416Z,6.43
2018-08-09T10:19:47.759Z,7.57
2018-08-09T10:22:16.033Z,8.33
2018-08-09T10:26:13.621Z,6.77
2018-08-09T10:28:41.914Z,8.13
2018-08-09T10:31:10.394Z,8.90
2018-08-09T10:33:38.764Z,8.43
2018-08-09T10:36:07.068Z,7.13
2018-08-09T10:38:35.362Z,8.80
2018-08-09T10:41:03.692Z,6.20
2018-08-09T10:43:32.056Z,6.67
2018-08-09T10:46:00.355Z,7.07
2018-08-09T10:48:28.680Z,10.43
2018-08-09T10:50:57.027Z,8.07
2018-08-09T10:53:25.355Z,10.67
2018-08-09T10:55:53.766Z,10.07
2018-08-09T10:58:22.068Z,6.80
2018-08-09T11:00:50.386Z,9.87
2018-08-09T11:03:18.696Z,10.53
2018-08-09T11:05:46.987Z,9.80
2018-08-09T11:08:15.272Z,10.83
2018-08-09T11:10:43.622Z,8.57
2018-08-09T11:13:11.967Z,10.00
2018-08-09T11:15:40.267Z,10.83
2018-08-09T11:18:08.683Z,8.33
2018-08-09T11:20:37.062Z,11.23
2018-08-09T11:23:05.843Z,12.77
2018-08-09T11:25:34.131Z,12.60
2018-08-09T11:28:02.447Z,11.73
2018-08-09T11:30:30.762Z,11.43
2018-08-09T11:32:59.083Z,13.40
2018-08-09T11:35:27.400Z,11.60
2018-08-09T11:37:55.710Z,15.30
2018-08-09T11:40:24.043Z,15.80
2018-08-09T11:42:52.367Z,12.40
2018-08-09T11:45:20.688Z,13.20
2018-08-09T11:47:49.001Z,14.07
2018-08-09T11:50:17.343Z,13.97
2018-08-09T11:52:45.707Z,16.83
2018-08-09T11:55:14.022Z,16.23
2018-08-09T11:57:42.331Z,17.53
2018-08-09T12:00:10.626Z,17.27
2018-08-09T12:02:38.985Z,15.77
2018-08-09T12:05:07.309Z,19.47
2018-08-09T12:07:35.687Z,17.50
2018-08-09T12:10:04.211Z,30.80
2018-08-09T12:12:32.531Z,20.77
2018-08-09T12:15:00.898Z,24.37
2018-08-09T12:17:29.191Z,21.67
2018-08-09T12:19:57.511Z,42.53
2018-08-09T12:22:25.862Z,26.53
2018-08-09T12:24:54.220Z,26.37
2018-08-09T12:27:22.519Z,49.43
2018-08-09T12:29:50.819Z,39.93
2018-08-09T12:32:19.139Z,44.40
2018-08-09T12:34:47.448Z,45.63
2018-08-09T12:37:15.751Z,47.33
2018-08-09T12:39:44.057Z,34.40
2018-08-09T12:42:12.367Z,44.63
2018-08-09T12:44:40.808Z,46.90
2018-08-09T12:47:09.102Z,40.80
2018-08-09T12:49:37.420Z,50.80
2018-08-09T12:52:06.496Z,31.40
2018-08-09T12:54:34.839Z,32.70
2018-08-09T12:57:03.247Z,52.40
2018-08-09T12:59:31.558Z,50.63
2018-08-09T13:01:59.890Z,68.90
2018-08-09T13:04:28.184Z,47.13
2018-08-09T13:06:56.536Z,45.23
2018-08-09T13:09:24.835Z,50.87
2018-08-09T13:11:53.197Z,108.53
2018-08-09T13:14:21.507Z,80.17
2018-08-09T13:16:49.876Z,69.13
2018-08-09T13:19:18.200Z,45.73
2018-08-09T13:21:46.505Z,38.70
2018-08-09T13:24:14.814Z,40.47
2018-08-09T13:26:43.113Z,43.17
2018-08-09T13:29:11.416Z,42.83
2018-08-09T13:31:39.703Z,35.33
2018-08-09T13:34:07.997Z,53.70
2018-08-09T13:36:36.316Z,38.03
2018-08-09T13:39:08.420Z,40.77
2018-08-09T13:41:36.724Z,42.93
2018-08-09T13:44:05.063Z,49.20
2018-08-09T13:46:33.431Z,35.37
2018-08-09T13:49:01.740Z,46.27
2018-08-09T13:51:30.039Z,67.97
2018-08-09T13:53:58.371Z,67.63
2018-08-09T13:56:26.687Z,80.73
2018-08-09T13:58:55.863Z,147.13
2018-08-09T14:01:24.219Z,78.50
2018-08-09T14:03:52.546Z,95.37
2018-08-09T14:06:20.873Z,58.07
2018-08-09T14:08:49.206Z,67.50
2018-08-09T14:11:17.840Z,104.93
2018-08-09T14:13:46.207Z,75.73
2018-08-09T14:16:14.514Z,87.77
2018-08-09T14:18:42.845Z,62.63
2018-08-09T14:21:11.167Z,84.67
2018-08-09T14:23:40.037Z,60.83
2018-08-09T14:26:08.348Z,96.77
2018-08-09T14:28:36.651Z,59.93
2018-08-09T14:31:04.965Z,58.07
2018-08-09T14:33:33.537Z,50.73
2018-08-09T14:36:01.849Z,51.27
2018-08-09T14:38:30.179Z,78.37
2018-08-09T14:40:58.490Z,65.13
2018-08-09T14:43:26.816Z,57.07
2018-08-09T14:45:55.110Z,82.20
2018-08-09T14:48:23.427Z,87.97
2018-08-09T14:50:51.507Z,105.07
2018-08-09T14:53:19.566Z,111.30
2018-08-09T14:55:47.604Z,123.03
2018-08-09T14:58:15.638Z,90.33
2018-08-09T15:00:43.663Z,111.97
2018-08-09T15:03:11.751Z,109.97
2018-08-09T15:05:39.911Z,89.87
2018-08-09T15:08:07.955Z,105.50
2018-08-09T15:10:36.006Z,80.30
2018-08-09T15:13:04.062Z,71.33
2018-08-09T15:15:32.229Z,128.13
2018-08-09T15:18:00.314Z,74.87
2018-08-09T15:20:28.342Z,81.60
2018-08-09T15:22:56.401Z,77.83
2018-08-09T15:25:24.522Z,94.13
2018-08-09T15:27:52.567Z,112.23
2018-08-09T15:30:20.907Z,71.90
2018-08-09T15:32:49.038Z,79.03
2018-08-09T15:35:17.071Z,97.83
2018-08-09T15:37:45.395Z,92.43
2018-08-09T15:40:13.980Z,108.57
2018-08-09T15:42:42.201Z,125.03
2018-08-09T15:45:11.885Z,92.53
2018-08-09T15:47:40.599Z,105.50
2018-08-09T15:50:17.735Z,99.33
2018-08-09T15:52:46.027Z,101.47
2018-08-09T15:55:14.639Z,96.07
2018-08-09T15:57:42.714Z,75.83
2018-08-09T16:00:16.167Z,91.50
2018-08-09T16:02:44.451Z,87.13
2018-08-09T16:05:12.510Z,87.93
2018-08-09T16:07:40.583Z,119.23
2018-08-09T16:10:10.234Z,84.50
2018-08-09T16:12:38.682Z,77.03
2018-08-09T16:15:07.238Z,90.43
2018-08-09T16:17:35.573Z,70.27
2018-08-09T16:20:04.666Z,50.07
2018-08-09T16:22:32.790Z,76.10
2018-08-09T16:25:00.811Z,52.57
2018-08-09T16:27:28.843Z,43.13
2018-08-09T16:29:56.925Z,41.00
2018-08-09T16:32:25.079Z,68.70
2018-08-09T16:34:53.171Z,75.53
2018-08-09T16:37:21.231Z,76.07
2018-08-09T16:39:49.339Z,99.90
2018-08-09T16:42:17.591Z,98.73
2018-08-09T16:44:45.635Z,113.73
2018-08-09T16:47:13.771Z,89.80
2018-08-09T16:49:41.875Z,77.57
2018-08-09T16:52:10.275Z,68.60
2018-08-09T16:54:38.330Z,77.73
2018-08-09T16:57:06.507Z,98.27
2018-08-09T16:59:34.571Z,66.47
2018-08-09T17:02:02.683Z,72.03
2018-08-09T17:04:30.966Z,97.87
2018-08-09T17:06:59.010Z,81.53
2018-08-09T17:09:27.232Z,94.13
2018-08-09T17:11:55.278Z,87.67
2018-08-09T17:14:23.336Z,94.80
2018-08-09T17:16:51.593Z,133.47
2018-08-09T17:19:19.623Z,141.10
2018-08-09T17:21:47.692Z,108.10
2018-08-09T17:24:15.720Z,79.17
2018-08-09T17:26:43.807Z,72.77
2018-08-09T17:29:11.887Z,123.27
2018-08-09T17:31:39.922Z,81.80
2018-08-09T17:34:08.047Z,68.53
2018-08-09T17:36:37.322Z,25.77
2018-08-09T17:39:08.403Z,16.80
2018-08-09T17:41:36.443Z,16.93
2018-08-09T17:44:05.200Z,15.47
2018-08-09T17:46:33.271Z,18.90
2018-08-09T17:49:01.339Z,16.13
2018-08-09T17:51:29.404Z,14.83
2018-08-09T17:53:57.714Z,13.03
2018-08-09T17:56:25.770Z,13.97
2018-08-09T17:58:53.807Z,9.50
2018-08-09T18:01:21.874Z,13.07
2018-08-09T18:03:50.055Z,10.73
2018-08-09T18:06:18.217Z,12.40
2018-08-09T18:08:46.403Z,11.87
2018-08-09T18:11:14.462Z,12.37
2018-08-09T18:13:42.787Z,12.90
2018-08-09T18:16:10.865Z,10.60
2018-08-09T18:18:39.127Z,10.50
2018-08-09T18:21:07.225Z,15.70
2018-08-09T18:23:35.269Z,13.43
2018-08-09T18:26:03.816Z,20.07
2018-08-09T18:28:32.143Z,26.40
2018-08-09T18:31:00.215Z,18.00
2018-08-09T18:33:28.480Z,18.47
2018-08-09T18:35:56.647Z,22.63
2018-08-09T18:38:25.022Z,16.63
2018-08-09T18:40:53.074Z,22.20
2018-08-09T18:43:21.096Z,12.73
2018-08-09T18:45:49.131Z,16.40
2018-08-09T18:48:17.196Z,12.83
2018-08-09T18:50:45.357Z,12.67
2018-08-09T18:53:13.430Z,15.50
2018-08-09T18:55:41.499Z,10.90
2018-08-09T18:58:09.535Z,13.80
2018-08-09T19:00:37.642Z,10.97
2018-08-09T19:03:05.694Z,14.83
2018-08-09T19:05:33.785Z,12.20
2018-08-09T19:08:01.820Z,15.57
2018-08-09T19:10:30.654Z,9.97
2018-08-09T19:12:58.829Z,13.67
2018-08-09T19:15:26.945Z,12.50
2018-08-09T19:17:55.037Z,14.73
2018-08-09T19:20:25.399Z,13.90
2018-08-09T19:22:53.644Z,15.37
2018-08-09T19:25:21.691Z,17.33
2018-08-09T19:27:49.774Z,14.67
2018-08-09T19:30:18.698Z,8.93
2018-08-09T19:32:46.779Z,17.37
2018-08-09T19:35:15.311Z,9.33
2018-08-09T19:37:43.347Z,9.17
2018-08-09T19:40:12.149Z,11.70
2018-08-09T19:42:40.588Z,9.40
2018-08-09T19:45:12.787Z,10.00
2018-08-09T19:47:41.122Z,12.23
2018-08-09T19:50:11.056Z,11.97
2018-08-09T19:52:39.254Z,7.70
2018-08-09T19:55:09.453Z,6.87
2018-08-09T19:57:38.039Z,10.20
2018-08-09T20:00:39.239Z,14.53
2018-08-09T20:03:07.277Z,13.87
2018-08-09T20:05:35.363Z,12.03
2018-08-09T20:08:03.423Z,13.40
2018-08-09T20:10:31.479Z,12.03
2018-08-09T20:12:59.551Z,15.57
2018-08-09T20:15:27.586Z,8.83
2018-08-09T20:17:55.706Z,9.03
2018-08-09T20:20:25.204Z,6.27
2018-08-09T20:22:53.445Z,10.00
2018-08-09T20:25:21.550Z,14.50
2018-08-09T20:27:49.619Z,13.03
2018-08-09T20:30:17.996Z,12.00
2018-08-09T20:32:46.478Z,16.70
2018-08-09T20:35:15.264Z,10.70
2018-08-09T20:37:44.256Z,13.63
2018-08-09T20:40:12.740Z,18.70
2018-08-09T20:42:41.223Z,13.27
2018-08-09T20:45:10.715Z,14.70
2018-08-09T20:47:38.797Z,15.23
2018-08-09T20:50:08.768Z,22.80
2018-08-09T20:52:36.999Z,16.93
2018-08-09T20:55:05.362Z,20.17
2018-08-09T20:57:33.397Z,16.00
2018-08-09T21:00:01.507Z,16.17
2018-08-09T21:02:29.600Z,15.73
2018-08-09T21:04:57.927Z,14.07
2018-08-09T21:07:26.228Z,17.53
2018-08-09T21:09:54.550Z,17.47
2018-08-09T21:12:22.835Z,16.07
2018-08-09T21:14:51.142Z,17.53
2018-08-09T21:17:19.442Z,16.67
2018-08-09T21:19:47.756Z,16.50
2018-08-09T21:22:16.060Z,14.60
2018-08-09T21:24:44.571Z,14.70
2018-08-09T21:27:12.885Z,11.77
2018-08-09T21:29:41.200Z,11.50
2018-08-09T21:32:09.518Z,15.37
2018-08-09T21:34:37.840Z,16.83
2018-08-09T21:37:06.139Z,9.13
2018-08-09T21:39:34.459Z,11.47
2018-08-09T21:42:02.748Z,15.23
2018-08-09T21:44:30.814Z,8.90
2018-08-09T21:46:59.121Z,7.00
2018-08-09T21:49:27.430Z,9.83
2018-08-09T21:51:55.787Z,8.63
2018-08-09T21:54:24.102Z,7.73
2018-08-09T21:56:52.408Z,12.10
2018-08-09T21:59:20.721Z,10.80
2018-08-09T22:01:49.023Z,8.80
2018-08-09T22:04:17.331Z,10.13
2018-08-09T22:06:51.233Z,7.30
2018-08-09T22:09:24.996Z,10.47
2018-08-09T22:11:58.762Z,6.70
2018-08-09T22:14:32.599Z,6.70
2018-08-09T22:17:06.421Z,10.33
2018-08-09T22:19:40.123Z,5.53
2018-08-09T22:22:09.796Z,5.77
2018-08-09T22:24:38.415Z,6.80
2018-08-09T22:27:07.004Z,13.80
2018-08-09T22:29:35.316Z,8.93
2018-08-09T22:32:03.403Z,9.07
2018-08-09T22:34:31.458Z,7.27
2018-08-09T22:36:59.775Z,5.23
2018-08-09T22:39:28.092Z,7.33
2018-08-09T22:41:56.582Z,7.03
2018-08-09T22:44:24.878Z,6.97
2018-08-09T22:46:53.166Z,9.23
2018-08-09T22:49:21.626Z,7.60
2018-08-09T22:51:49.935Z,5.57
2018-08-09T22:54:18.256Z,10.30
2018-08-09T22:56:46.571Z,10.63
2018-08-09T22:59:14.723Z,10.63
2018-08-09T23:01:42.786Z,7.17
2018-08-09T23:04:10.823Z,14.40
2018-08-09T23:06:39.124Z,11.37
2018-08-09T23:09:08.726Z,7.00
2018-08-09T23:11:37.299Z,15.60
2018-08-09T23:14:05.707Z,8.10
2018-08-09T23:16:33.808Z,5.27
2018-08-09T23:19:01.971Z,7.73
2018-08-09T23:21:30.246Z,9.17
2018-08-09T23:23:58.330Z,8.43
2018-08-09T23:26:26.616Z,6.77
2018-08-09T23:28:54.943Z,4.77
2018-08-09T23:31:23.278Z,5.97
2018-08-09T23:33:51.623Z,7.73
2018-08-09T23:36:19.920Z,5.33
2018-08-09T23:38:48.223Z,10.37
2018-08-09T23:41:16.527Z,6.57
2018-08-09T23:43:44.841Z,4.53
2018-08-09T23:46:13.128Z,5.60
2018-08-09T23:48:41.594Z,5.13
2018-08-09T23:51:09.893Z,7.70
2018-08-09T23:53:38.214Z,8.97
2018-08-09T23:56:06.480Z,6.00
2018-08-09T23:58:34.505Z,6.47
